Time;durP1;ratioP1;P1;durP2;ratioP2;P2;SDS_P1;SDS_P2;PMS_P1;PMS_P2;Temp;Humidity;BMP_temperature;BMP_pressure;BME280_temperature;BME280_humidity;BME280_pressure;Samples;Min_cycle;Max_cycle;Signal;HPM_P1;HPM_P2
2024/01/17 00:00:41;;;;;;;10.73;5.20;;;-1.40;99.90;;;;;;5106571;28;20237;-86
2024/01/17 00:03:08;;;;;;;13.65;5.30;;;-1.40;99.90;;;;;;5098733;28;20228;-87
2024/01/17 00:05:35;;;;;;;8.65;4.65;;;-1.40;99.90;;;;;;5105639;28;20238;-82
2024/01/17 00:08:04;;;;;;;11.68;5.78;;;-1.40;99.90;;;;;;5107177;28;20269;-81
2024/01/17 00:10:31;;;;;;;8.80;6.15;;;-1.50;99.90;;;;;;5098396;28;20216;-82
2024/01/17 00:13:00;;;;;;;10.57;5.15;;;-1.40;99.90;;;;;;5097920;28;20299;-82
2024/01/17 00:15:26;;;;;;;9.05;5.47;;;-1.40;99.90;;;;;;5098402;28;20607;-81
2024/01/17 00:17:53;;;;;;;9.02;5.63;;;-1.50;99.90;;;;;;5099167;28;20226;-81
2024/01/17 00:20:20;;;;;;;7.30;4.55;;;-1.50;99.90;;;;;;5098058;28;20273;-82
2024/01/17 00:22:47;;;;;;;10.00;5.43;;;-1.50;99.90;;;;;;5097183;28;20206;-83
2024/01/17 00:25:15;;;;;;;7.85;4.85;;;-1.40;99.90;;;;;;5092400;28;20285;-82
2024/01/17 00:27:43;;;;;;;7.70;4.85;;;-1.50;99.90;;;;;;5084768;28;20293;-81
2024/01/17 00:30:11;;;;;;;8.38;4.80;;;-1.50;99.90;;;;;;5096993;28;20204;-81
2024/01/17 00:32:38;;;;;;;8.05;5.00;;;-1.50;99.90;;;;;;5096253;28;20211;-82
2024/01/17 00:35:06;;;;;;;9.25;5.70;;;-1.50;99.90;;;;;;5084955;28;20207;-83
2024/01/17 00:37:33;;;;;;;12.13;5.05;;;-1.50;99.90;;;;;;5091366;28;20725;-82
2024/01/17 00:40:00;;;;;;;7.63;4.95;;;-1.50;99.90;;;;;;5096099;28;20215;-81
2024/01/17 00:42:29;;;;;;;12.50;5.22;;;-1.50;99.90;;;;;;5096433;28;20749;-82
2024/01/17 00:44:56;;;;;;;7.60;5.85;;;-1.50;99.90;;;;;;5096172;28;20638;-82
2024/01/17 00:47:24;;;;;;;8.85;4.70;;;-1.70;99.90;;;;;;5096260;28;20286;-81
2024/01/17 00:49:51;;;;;;;9.35;4.50;;;-1.60;99.90;;;;;;5096057;28;20223;-81
2024/01/17 00:52:18;;;;;;;11.10;5.50;;;-1.60;99.90;;;;;;5088534;28;20315;-83
2024/01/17 00:54:44;;;;;;;13.88;5.57;;;-1.60;99.90;;;;;;5096286;28;20735;-81
2024/01/17 00:57:11;;;;;;;8.18;5.43;;;-1.60;99.90;;;;;;5097832;28;20261;-81
2024/01/17 00:59:39;;;;;;;8.65;5.63;;;-1.60;99.90;;;;;;5097378;28;20213;-81
2024/01/17 01:02:06;;;;;;;9.88;5.43;;;-1.60;99.90;;;;;;5082365;28;20237;-81
2024/01/17 01:04:33;;;;;;;12.48;5.00;;;-1.70;99.90;;;;;;5088175;28;20292;-80
2024/01/17 01:07:03;;;;;;;13.77;4.78;;;-1.70;99.90;;;;;;5092223;28;20309;-82
2024/01/17 01:09:30;;;;;;;8.95;5.32;;;-1.70;99.90;;;;;;5082303;28;20304;-82
2024/01/17 01:11:56;;;;;;;7.18;4.78;;;-1.70;99.90;;;;;;5087430;28;20199;-83
2024/01/17 01:14:26;;;;;;;9.60;5.15;;;-1.70;99.90;;;;;;5081442;28;20205;-81
2024/01/17 01:16:57;;;;;;;9.38;4.45;;;-1.70;99.90;;;;;;5092060;28;20248;-82
2024/01/17 01:19:23;;;;;;;8.27;5.13;;;-1.60;99.90;;;;;;5088325;28;20307;-81
2024/01/17 01:21:52;;;;;;;9.98;4.80;;;-1.60;99.90;;;;;;5096159;28;20694;-84
2024/01/17 01:24:19;;;;;;;7.28;5.55;;;-1.60;99.90;;;;;;5095632;28;20222;-82
2024/01/17 01:26:46;;;;;;;9.10;4.65;;;-1.60;99.90;;;;;;5111737;28;20213;-83
2024/01/17 01:29:14;;;;;;;9.18;5.10;;;-1.60;99.90;;;;;;5116155;28;20241;-83
2024/01/17 01:31:41;;;;;;;8.75;5.15;;;-1.70;99.90;;;;;;5107140;28;20248;-84
2024/01/17 01:34:09;;;;;;;11.68;5.53;;;-1.60;99.90;;;;;;5105377;28;20206;-82
2024/01/17 01:36:36;;;;;;;10.93;4.70;;;-1.60;99.90;;;;;;5114287;28;20255;-83
2024/01/17 01:39:03;;;;;;;7.85;4.70;;;-1.70;99.90;;;;;;5113044;28;20298;-82
2024/01/17 01:41:30;;;;;;;11.02;4.88;;;-1.70;99.90;;;;;;5113511;28;20270;-83
2024/01/17 01:43:57;;;;;;;7.25;4.47;;;-1.70;99.90;;;;;;5118719;28;20209;-83
2024/01/17 01:46:27;;;;;;;7.53;4.85;;;-1.70;99.90;;;;;;5105152;28;20740;-83
2024/01/17 01:48:54;;;;;;;9.27;4.93;;;-1.70;99.90;;;;;;5104440;28;20236;-84
2024/01/17 01:51:23;;;;;;;8.10;4.65;;;-1.70;99.90;;;;;;5099266;28;20642;-85
2024/01/17 01:53:53;;;;;;;7.50;5.15;;;-1.80;99.90;;;;;;5096431;28;20202;-84
2024/01/17 01:56:24;;;;;;;6.82;4.97;;;-1.70;99.90;;;;;;5104779;28;20292;-84
2024/01/17 01:58:53;;;;;;;7.78;4.78;;;-1.80;99.90;;;;;;5103935;28;20227;-83
2024/01/17 02:01:21;;;;;;;10.48;5.07;;;-1.80;99.90;;;;;;5102767;28;20573;-82
2024/01/17 02:03:48;;;;;;;6.18;4.13;;;-1.90;99.90;;;;;;5103689;28;20238;-84
2024/01/17 02:06:20;;;;;;;10.77;5.28;;;-1.90;99.90;;;;;;5098880;28;20240;-84
2024/01/17 02:08:50;;;;;;;7.68;4.70;;;-1.90;99.90;;;;;;5092182;28;20206;-83
2024/01/17 02:11:17;;;;;;;10.52;4.07;;;-1.90;99.90;;;;;;5094518;28;20202;-83
2024/01/17 02:13:45;;;;;;;12.32;4.88;;;-1.90;99.90;;;;;;5103079;28;20302;-82
2024/01/17 02:16:13;;;;;;;8.35;4.93;;;-1.90;99.90;;;;;;5102800;28;20254;-83
2024/01/17 02:18:39;;;;;;;9.45;5.07;;;-1.80;99.90;;;;;;5104237;28;20305;-84
2024/01/17 02:21:07;;;;;;;8.73;4.40;;;-1.80;99.90;;;;;;5086892;28;20297;-83
2024/01/17 02:23:33;;;;;;;8.70;5.15;;;-1.80;99.90;;;;;;5103805;28;20297;-84
2024/01/17 02:26:02;;;;;;;5.57;4.38;;;-1.80;99.90;;;;;;5097679;28;20265;-82
2024/01/17 02:28:30;;;;;;;8.65;5.18;;;-1.80;99.90;;;;;;5103682;28;20208;-85
2024/01/17 02:30:57;;;;;;;10.73;5.38;;;-1.80;99.90;;;;;;5095195;28;20281;-83
2024/01/17 02:33:24;;;;;;;8.43;4.63;;;-1.80;99.90;;;;;;5103558;28;20273;-83
2024/01/17 02:35:52;;;;;;;9.95;5.30;;;-1.80;99.90;;;;;;5096672;28;20414;-83
2024/01/17 02:38:18;;;;;;;8.90;4.55;;;-1.80;99.90;;;;;;5098819;28;20232;-83
2024/01/17 02:40:45;;;;;;;6.30;4.50;;;-1.80;99.90;;;;;;5102205;28;20293;-83
2024/01/17 02:43:14;;;;;;;8.68;5.22;;;-1.80;99.90;;;;;;5101101;28;20206;-83
2024/01/17 02:45:40;;;;;;;6.38;4.63;;;-1.80;99.90;;;;;;5102022;28;20221;-83
2024/01/17 02:48:07;;;;;;;7.88;4.70;;;-1.80;99.90;;;;;;5099236;28;20347;-84
2024/01/17 02:50:34;;;;;;;9.13;5.47;;;-1.70;99.90;;;;;;5099787;28;20689;-82
2024/01/17 02:53:01;;;;;;;8.82;4.70;;;-1.70;99.90;;;;;;5100809;28;20316;-82
2024/01/17 02:55:28;;;;;;;6.80;4.68;;;-1.80;99.90;;;;;;5101958;28;20307;-82
2024/01/17 02:57:55;;;;;;;7.85;4.80;;;-1.80;99.90;;;;;;5090623;28;20226;-82
2024/01/17 03:00:23;;;;;;;12.05;5.43;;;-1.80;99.90;;;;;;5100574;28;20208;-84
2024/01/17 03:02:50;;;;;;;11.48;5.13;;;-1.80;99.90;;;;;;5101280;28;20205;-84
2024/01/17 03:05:20;;;;;;;7.60;4.85;;;-1.80;99.90;;;;;;5101378;28;20636;-82
2024/01/17 03:07:47;;;;;;;8.40;5.00;;;-1.80;99.90;;;;;;5098331;28;20197;-81
2024/01/17 03:10:14;;;;;;;9.23;5.47;;;-1.80;99.90;;;;;;5100317;28;20682;-81
2024/01/17 03:12:40;;;;;;;7.07;4.78;;;-1.80;99.90;;;;;;5097086;28;20287;-82
2024/01/17 03:15:10;;;;;;;7.22;4.90;;;-1.70;99.90;;;;;;5084773;28;20204;-82
2024/01/17 03:17:38;;;;;;;11.43;4.90;;;-1.80;99.90;;;;;;5089562;28;20322;-82
2024/01/17 03:20:06;;;;;;;6.32;4.78;;;-1.80;99.90;;;;;;5090823;28;20293;-83
2024/01/17 03:22:33;;;;;;;15.60;5.15;;;-1.70;99.90;;;;;;5098141;28;20569;-83
2024/01/17 03:25:00;;;;;;;7.70;4.95;;;-1.70;99.90;;;;;;5096703;28;20228;-81
2024/01/17 03:27:27;;;;;;;9.57;5.00;;;-1.60;99.90;;;;;;5097608;28;20300;-83
2024/01/17 03:29:54;;;;;;;7.85;5.05;;;-1.60;99.90;;;;;;5097971;28;20690;-82
2024/01/17 03:32:21;;;;;;;8.90;4.97;;;-1.60;99.90;;;;;;5097779;28;20237;-83
2024/01/17 03:34:51;;;;;;;8.65;5.45;;;-1.70;99.90;;;;;;5088302;28;20679;-82
2024/01/17 03:37:18;;;;;;;7.55;4.82;;;-1.60;99.90;;;;;;5098381;28;20235;-83
2024/01/17 03:39:45;;;;;;;9.00;5.22;;;-1.60;99.90;;;;;;5091866;28;20224;-85
2024/01/17 03:42:15;;;;;;;10.13;5.25;;;-1.60;99.90;;;;;;5101539;28;20205;-82
2024/01/17 03:44:43;;;;;;;10.40;5.38;;;-1.70;99.90;;;;;;5100642;28;20279;-83
2024/01/17 03:47:10;;;;;;;11.27;6.07;;;-1.70;99.90;;;;;;5102021;28;20230;-83
2024/01/17 03:49:39;;;;;;;10.70;5.97;;;-1.70;99.90;;;;;;5098498;28;20201;-83
2024/01/17 03:52:08;;;;;;;12.10;5.20;;;-1.60;99.90;;;;;;5105855;28;20250;-85
2024/01/17 03:54:36;;;;;;;8.43;4.80;;;-1.70;99.90;;;;;;5097683;28;20212;-79
2024/01/17 03:57:03;;;;;;;9.05;5.72;;;-1.70;99.90;;;;;;5106264;28;20234;-82
2024/01/17 03:59:30;;;;;;;8.70;4.70;;;-1.60;99.90;;;;;;5099850;28;20215;-82
2024/01/17 04:01:57;;;;;;;15.23;5.22;;;-1.60;99.90;;;;;;5106284;28;20201;-83
2024/01/17 04:04:24;;;;;;;13.50;5.63;;;-1.60;99.90;;;;;;5106468;28;20604;-84
2024/01/17 04:06:51;;;;;;;10.82;5.03;;;-1.60;99.90;;;;;;5106810;28;20292;-81
2024/01/17 04:09:20;;;;;;;9.85;5.70;;;-1.60;99.90;;;;;;5107424;28;20202;-83
2024/01/17 04:11:46;;;;;;;11.60;5.38;;;-1.70;99.90;;;;;;5107327;28;20274;-83
2024/01/17 04:14:13;;;;;;;9.18;5.10;;;-1.60;99.90;;;;;;5106290;28;20306;-83
2024/01/17 04:16:42;;;;;;;13.60;5.97;;;-1.60;99.90;;;;;;5103112;28;20226;-83
2024/01/17 04:19:08;;;;;;;11.43;5.55;;;-1.60;99.90;;;;;;5102910;28;20316;-83
2024/01/17 04:21:36;;;;;;;10.50;6.07;;;-1.60;99.90;;;;;;5107257;28;20209;-84
2024/01/17 04:24:03;;;;;;;10.52;6.20;;;-1.50;99.90;;;;;;5099120;28;20210;-83
2024/01/17 04:26:31;;;;;;;13.57;6.57;;;-1.60;99.90;;;;;;5106764;28;20230;-82
2024/01/17 04:28:58;;;;;;;8.43;5.35;;;-1.60;99.90;;;;;;5100655;28;20223;-82
2024/01/17 04:31:26;;;;;;;8.00;5.18;;;-1.60;99.90;;;;;;5105764;28;20255;-84
2024/01/17 04:33:53;;;;;;;8.75;5.80;;;-1.50;99.90;;;;;;5115656;28;20260;-85
2024/01/17 04:36:21;;;;;;;7.10;5.50;;;-1.50;99.90;;;;;;5115052;28;20259;-83
2024/01/17 04:38:48;;;;;;;13.57;6.15;;;-1.60;99.90;;;;;;5105273;28;20292;-83
2024/01/17 04:41:18;;;;;;;10.50;6.30;;;-1.50;99.90;;;;;;5101210;28;20209;-85
2024/01/17 04:43:46;;;;;;;13.10;5.95;;;-1.50;99.90;;;;;;5109540;28;20249;-83
2024/01/17 04:46:14;;;;;;;11.00;6.57;;;-1.50;99.90;;;;;;5103123;28;20233;-85
2024/01/17 04:48:42;;;;;;;14.05;7.15;;;-1.50;99.90;;;;;;5104427;28;20233;-85
2024/01/17 04:51:10;;;;;;;8.32;6.10;;;-1.60;99.90;;;;;;5107432;28;20234;-84
2024/01/17 04:53:37;;;;;;;13.25;5.57;;;-1.50;99.90;;;;;;5099098;28;20202;-84
2024/01/17 04:56:06;;;;;;;11.07;5.82;;;-1.50;99.90;;;;;;5103238;28;20607;-83
2024/01/17 04:58:33;;;;;;;9.68;5.80;;;-1.40;99.90;;;;;;5100262;28;20222;-84
2024/01/17 05:01:01;;;;;;;10.07;5.90;;;-1.40;99.90;;;;;;5105691;28;20210;-84
2024/01/17 05:03:28;;;;;;;11.10;6.80;;;-1.50;99.90;;;;;;5104191;28;20265;-85
2024/01/17 05:05:55;;;;;;;9.93;6.45;;;-1.50;99.90;;;;;;5098884;28;20246;-85
2024/01/17 05:08:22;;;;;;;11.25;7.00;;;-1.50;99.90;;;;;;5105707;28;20204;-84
2024/01/17 05:10:49;;;;;;;13.15;7.10;;;-1.50;99.90;;;;;;5089678;28;20302;-82
2024/01/17 05:13:16;;;;;;;10.90;6.07;;;-1.50;99.90;;;;;;5105004;28;20204;-84
2024/01/17 05:15:43;;;;;;;10.70;6.68;;;-1.50;99.90;;;;;;5106020;28;20253;-84
2024/01/17 05:18:11;;;;;;;11.85;6.40;;;-1.50;99.90;;;;;;5103569;28;20261;-84
2024/01/17 05:20:38;;;;;;;11.00;6.20;;;-1.60;99.90;;;;;;5105365;28;20258;-86
2024/01/17 05:23:06;;;;;;;13.32;5.95;;;-1.60;99.90;;;;;;5111556;28;20181;-87
2024/01/17 05:25:33;;;;;;;13.70;8.07;;;-1.60;99.90;;;;;;5120076;28;20214;-86
2024/01/17 05:28:00;;;;;;;11.35;6.30;;;-1.60;99.90;;;;;;5120762;28;20221;-85
2024/01/17 05:30:27;;;;;;;12.73;7.65;;;-1.60;99.90;;;;;;5121101;28;20199;-87
2024/01/17 05:32:55;;;;;;;12.50;6.75;;;-1.50;99.90;;;;;;5121134;28;20385;-91
2024/01/17 05:35:23;;;;;;;11.95;6.25;;;-1.60;99.90;;;;;;5121673;28;20233;-87
2024/01/17 05:37:51;;;;;;;18.17;6.90;;;-1.50;99.90;;;;;;5115043;28;20224;-84
2024/01/17 05:40:18;;;;;;;11.90;8.10;;;-1.50;99.90;;;;;;5105878;28;20220;-84
2024/01/17 05:42:46;;;;;;;11.20;6.97;;;-1.60;99.90;;;;;;5106698;28;20229;-86
2024/01/17 05:45:13;;;;;;;10.00;6.28;;;-1.60;99.90;;;;;;5093688;28;20304;-83
2024/01/17 05:47:41;;;;;;;10.40;7.15;;;-1.60;99.90;;;;;;5101436;28;20200;-83
2024/01/17 05:50:09;;;;;;;12.45;6.30;;;-1.60;99.90;;;;;;5102313;28;20233;-84
2024/01/17 05:52:39;;;;;;;10.52;6.28;;;-1.50;99.90;;;;;;5102259;28;20208;-84
2024/01/17 05:55:07;;;;;;;10.40;5.85;;;-1.50;99.90;;;;;;5103688;28;20616;-84
2024/01/17 05:57:34;;;;;;;12.75;6.43;;;-1.50;99.90;;;;;;5107786;28;20637;-84
2024/01/17 06:00:02;;;;;;;13.13;6.97;;;-1.40;99.90;;;;;;5111565;28;20689;-85
2024/01/17 06:02:29;;;;;;;14.60;6.10;;;-1.40;99.90;;;;;;5110857;28;20554;-84
2024/01/17 06:04:55;;;;;;;10.30;6.65;;;-1.30;99.90;;;;;;5100659;28;20470;-84
2024/01/17 06:07:25;;;;;;;14.85;6.68;;;-1.40;99.90;;;;;;5110413;28;20227;-84
2024/01/17 06:09:53;;;;;;;13.38;6.95;;;-1.40;99.90;;;;;;5108976;28;20467;-81
2024/01/17 06:12:20;;;;;;;11.65;6.57;;;-1.40;99.90;;;;;;5104100;28;20270;-84
2024/01/17 06:14:49;;;;;;;12.73;7.20;;;-1.30;99.90;;;;;;5106699;28;20206;-81
2024/01/17 06:17:15;;;;;;;8.25;5.82;;;-1.30;99.90;;;;;;5110598;28;20257;-82
2024/01/17 06:19:42;;;;;;;10.73;5.80;;;-1.30;99.90;;;;;;5099080;28;20286;-84
2024/01/17 06:22:23;;;;;;;10.00;5.85;;;-1.30;99.90;;;;;;5103589;28;20233;-82
2024/01/17 06:24:50;;;;;;;12.32;6.53;;;-1.20;99.90;;;;;;5104806;28;20205;-81
2024/01/17 06:27:22;;;;;;;9.70;5.72;;;-1.20;99.90;;;;;;5103383;28;20258;-81
2024/01/17 06:29:49;;;;;;;9.48;6.03;;;-1.20;99.90;;;;;;5103662;28;20199;-82
2024/01/17 06:32:16;;;;;;;16.15;9.85;;;-1.20;99.90;;;;;;5103411;28;20203;-84
2024/01/17 06:34:44;;;;;;;12.60;7.00;;;-1.20;99.90;;;;;;5103831;28;20203;-84
2024/01/17 06:37:11;;;;;;;15.10;7.10;;;-1.10;99.90;;;;;;5106992;28;20222;-84
2024/01/17 06:39:38;;;;;;;12.15;6.78;;;-1.30;99.90;;;;;;5101792;28;20288;-82
2024/01/17 06:42:05;;;;;;;11.10;5.75;;;-1.20;99.90;;;;;;5106182;28;20251;-83
2024/01/17 06:44:34;;;;;;;11.00;6.85;;;-1.20;99.90;;;;;;5109554;28;20276;-84
2024/01/17 06:47:00;;;;;;;8.63;5.25;;;-1.20;99.90;;;;;;5107815;28;20255;-84
2024/01/17 06:49:27;;;;;;;9.05;5.35;;;-1.10;99.90;;;;;;5109115;28;20238;-84
2024/01/17 06:51:56;;;;;;;13.23;7.60;;;-1.10;99.90;;;;;;5101512;28;20217;-83
2024/01/17 06:54:24;;;;;;;9.30;6.53;;;-1.00;99.90;;;;;;5105005;28;20666;-83
2024/01/17 06:56:51;;;;;;;7.88;5.35;;;-1.00;99.90;;;;;;5107297;28;20237;-84
2024/01/17 06:59:18;;;;;;;9.60;5.93;;;-1.10;99.90;;;;;;5111299;28;20309;-83
2024/01/17 07:01:51;;;;;;;11.25;6.47;;;-1.10;99.90;;;;;;5092922;28;20229;-84
2024/01/17 07:04:18;;;;;;;8.20;5.05;;;-1.00;99.90;;;;;;5109467;28;20660;-83
2024/01/17 07:06:45;;;;;;;9.38;5.60;;;-1.00;99.90;;;;;;5109843;28;20286;-84
2024/01/17 07:09:18;;;;;;;12.07;6.07;;;-1.00;99.90;;;;;;5103727;28;20221;-84
2024/01/17 07:11:45;;;;;;;9.27;5.65;;;-1.00;99.90;;;;;;5109377;28;20213;-84
2024/01/17 07:14:11;;;;;;;9.98;6.10;;;-1.00;99.90;;;;;;5110969;28;20559;-83
2024/01/17 07:16:40;;;;;;;9.70;5.57;;;-1.00;99.90;;;;;;5110818;28;20249;-85
2024/01/17 07:19:08;;;;;;;12.02;5.50;;;-1.00;99.90;;;;;;5105957;28;20295;-83
2024/01/17 07:21:39;;;;;;;14.13;5.80;;;-0.90;99.90;;;;;;5112910;28;20218;-83
2024/01/17 07:24:06;;;;;;;14.55;6.60;;;-0.80;99.90;;;;;;5105728;28;20208;-85
2024/01/17 07:26:33;;;;;;;7.60;5.03;;;-0.80;99.90;;;;;;5112287;28;20231;-84
2024/01/17 07:29:00;;;;;;;10.90;5.22;;;-0.80;99.90;;;;;;5113578;28;20513;-81
2024/01/17 07:31:27;;;;;;;11.15;5.60;;;-0.80;99.90;;;;;;5109241;28;20246;-82
2024/01/17 07:33:56;;;;;;;7.07;4.88;;;-0.80;99.90;;;;;;5108835;28;20199;-85
2024/01/17 07:36:24;;;;;;;12.52;6.07;;;-0.80;99.90;;;;;;5116797;28;20253;-86
2024/01/17 07:38:51;;;;;;;9.85;5.57;;;-0.80;99.90;;;;;;5115047;28;20214;-81
2024/01/17 07:41:18;;;;;;;9.40;4.57;;;-0.80;99.90;;;;;;5115413;28;20216;-83
2024/01/17 07:43:46;;;;;;;8.90;5.07;;;-0.70;99.90;;;;;;5116874;28;20315;-83
2024/01/17 07:46:13;;;;;;;7.78;5.40;;;-0.60;99.90;;;;;;5114110;28;20271;-84
2024/01/17 07:48:43;;;;;;;7.57;4.60;;;-0.60;99.90;;;;;;5104033;28;20313;-85
2024/01/17 07:51:10;;;;;;;9.07;5.70;;;-0.60;99.90;;;;;;5104575;28;20825;-84
2024/01/17 07:53:41;;;;;;;10.35;5.20;;;-0.50;99.90;;;;;;5111278;28;20269;-85
2024/01/17 07:56:09;;;;;;;7.57;5.03;;;-0.50;99.90;;;;;;5105673;28;20310;-84
2024/01/17 07:58:36;;;;;;;11.00;5.03;;;-0.50;99.90;;;;;;5108377;28;20224;-83
2024/01/17 08:01:05;;;;;;;11.52;6.40;;;-0.50;99.90;;;;;;5101491;28;20227;-82
2024/01/17 08:03:33;;;;;;;10.88;5.47;;;-0.40;99.90;;;;;;5101557;28;20741;-83
2024/01/17 08:06:00;;;;;;;7.25;4.97;;;-0.30;99.90;;;;;;5102066;28;20318;-82
2024/01/17 08:08:27;;;;;;;15.82;7.13;;;-0.30;99.90;;;;;;5100524;28;20714;-82
2024/01/17 08:10:57;;;;;;;7.57;5.17;;;-0.20;99.90;;;;;;5100113;28;20309;-83
2024/01/17 08:13:24;;;;;;;11.05;6.10;;;-0.20;99.90;;;;;;5100842;28;20520;-82
2024/01/17 08:15:51;;;;;;;7.40;5.07;;;-0.10;99.90;;;;;;5098538;28;20228;-82
2024/01/17 08:18:18;;;;;;;10.05;5.93;;;0.00;99.90;;;;;;5090425;28;20553;-85
2024/01/17 08:20:46;;;;;;;7.85;5.22;;;0.00;99.90;;;;;;5092945;28;20313;-82
2024/01/17 08:23:13;;;;;;;9.10;5.57;;;0.00;99.90;;;;;;5089996;28;20748;-81
2024/01/17 08:25:39;;;;;;;7.60;5.85;;;0.10;99.90;;;;;;5095727;28;20477;-81
2024/01/17 08:28:08;;;;;;;10.53;5.60;;;0.20;99.90;;;;;;5088825;28;20211;-83
2024/01/17 08:30:35;;;;;;;8.70;5.27;;;0.20;99.90;;;;;;5097072;28;20536;-81
2024/01/17 08:33:01;;;;;;;8.40;5.00;;;0.20;99.90;;;;;;5101706;28;20556;-82
2024/01/17 08:35:29;;;;;;;11.17;6.23;;;0.20;99.90;;;;;;5100503;28;20477;-80
2024/01/17 08:37:56;;;;;;;10.00;5.60;;;0.30;99.90;;;;;;5103175;28;20554;-82
2024/01/17 08:40:23;;;;;;;10.90;5.57;;;0.30;99.90;;;;;;5101223;28;20562;-83
2024/01/17 08:42:50;;;;;;;9.70;5.63;;;0.30;99.90;;;;;;5105423;28;20449;-83
2024/01/17 08:45:19;;;;;;;10.20;6.03;;;0.40;99.90;;;;;;5105776;28;20469;-83
2024/01/17 08:47:45;;;;;;;8.17;5.20;;;0.50;99.90;;;;;;5096156;28;20489;-82
2024/01/17 08:50:13;;;;;;;8.60;5.53;;;0.50;99.90;;;;;;5107010;28;20481;-82
2024/01/17 08:52:40;;;;;;;10.23;5.10;;;0.60;99.90;;;;;;5110206;28;20457;-83
2024/01/17 08:55:09;;;;;;;11.03;6.00;;;0.70;99.90;;;;;;5103173;28;20461;-83
2024/01/17 08:57:37;;;;;;;11.17;6.70;;;0.70;99.90;;;;;;5100449;28;20435;-81
2024/01/17 09:00:06;;;;;;;13.23;6.33;;;0.70;99.90;;;;;;5102593;28;20456;-83
2024/01/17 09:02:35;;;;;;;7.00;5.07;;;0.80;99.90;;;;;;5103758;28;20464;-81
2024/01/17 09:05:01;;;;;;;9.00;5.27;;;1.00;99.90;;;;;;5102996;28;20428;-82
2024/01/17 09:07:28;;;;;;;9.20;5.70;;;1.00;99.90;;;;;;5102459;28;20454;-81
2024/01/17 09:09:55;;;;;;;15.13;6.37;;;1.20;99.90;;;;;;5097120;28;20527;-80
2024/01/17 09:12:22;;;;;;;10.27;5.43;;;1.30;99.90;;;;;;5099494;28;20485;-80
2024/01/17 09:14:50;;;;;;;7.93;4.83;;;1.40;99.90;;;;;;5095847;28;20472;-81
2024/01/17 09:17:17;;;;;;;13.53;6.90;;;1.50;99.90;;;;;;5099876;28;21005;-80
2024/01/17 09:19:46;;;;;;;9.57;5.27;;;1.60;99.90;;;;;;5099311;28;20551;-81
2024/01/17 09:22:13;;;;;;;11.60;6.00;;;1.50;99.90;;;;;;5101766;28;20428;-80
2024/01/17 09:24:41;;;;;;;8.40;5.33;;;1.50;99.90;;;;;;5093976;28;20440;-80
2024/01/17 09:27:08;;;;;;;7.63;4.87;;;1.70;99.90;;;;;;5088307;28;20545;-80
2024/01/17 09:29:35;;;;;;;13.63;5.87;;;1.80;99.90;;;;;;5098763;28;20520;-81
2024/01/17 09:32:03;;;;;;;11.73;5.97;;;2.00;99.90;;;;;;5092973;28;20971;-80
2024/01/17 09:34:32;;;;;;;9.73;4.57;;;2.10;99.90;;;;;;5099891;28;20461;-81
2024/01/17 09:37:03;;;;;;;7.97;5.13;;;2.00;99.90;;;;;;5102217;28;20478;-82
2024/01/17 09:39:31;;;;;;;11.63;6.20;;;2.20;99.90;;;;;;5098874;28;20454;-81
2024/01/17 09:41:58;;;;;;;8.47;5.83;;;2.30;99.90;;;;;;5097807;28;20491;-80
2024/01/17 09:44:25;;;;;;;11.23;5.37;;;2.40;99.90;;;;;;5098336;28;20443;-81
2024/01/17 09:46:52;;;;;;;58.17;29.70;;;2.50;99.90;;;;;;5098612;28;20541;-80
2024/01/17 09:49:20;;;;;;;12.40;7.00;;;2.70;99.90;;;;;;5100958;28;20973;-81
2024/01/17 09:51:48;;;;;;;9.17;6.67;;;2.60;99.90;;;;;;5101023;28;20457;-81
2024/01/17 09:54:18;;;;;;;6.33;4.63;;;2.50;99.90;;;;;;5098958;28;20545;-78
2024/01/17 09:56:47;;;;;;;14.07;6.00;;;2.50;99.90;;;;;;5098117;28;20474;-81
2024/01/17 09:59:17;;;;;;;6.67;4.50;;;2.60;99.90;;;;;;5090477;28;20459;-80
2024/01/17 10:01:44;;;;;;;8.80;5.53;;;2.70;99.90;;;;;;5096748;28;20496;-81
2024/01/17 10:04:13;;;;;;;8.73;5.87;;;2.60;99.90;;;;;;5099472;28;21014;-83
2024/01/17 10:06:43;;;;;;;15.33;7.00;;;2.60;99.90;;;;;;5098712;28;20484;-81
2024/01/17 10:09:14;;;;;;;8.40;5.23;;;2.50;99.90;;;;;;5081605;28;20939;-79
2024/01/17 10:11:46;;;;;;;10.17;5.80;;;2.60;99.90;;;;;;5100590;28;20453;-81
2024/01/17 10:14:15;;;;;;;9.37;6.00;;;2.40;99.90;;;;;;5101159;28;20453;-80
2024/01/17 10:16:42;;;;;;;8.77;5.43;;;2.60;99.90;;;;;;5100075;28;20476;-80
2024/01/17 10:19:09;;;;;;;12.40;6.03;;;2.70;99.90;;;;;;5097015;28;20455;-80
2024/01/17 10:21:36;;;;;;;7.30;5.47;;;2.70;99.90;;;;;;5105407;28;20562;-82
2024/01/17 10:24:04;;;;;;;7.33;5.13;;;2.70;99.90;;;;;;5108408;28;20521;-80
2024/01/17 10:26:34;;;;;;;8.50;5.33;;;2.30;99.90;;;;;;5100096;28;20473;-81
2024/01/17 10:29:02;;;;;;;9.80;5.93;;;2.40;99.90;;;;;;5107240;28;20465;-81
2024/01/17 10:31:32;;;;;;;7.97;5.67;;;2.50;99.90;;;;;;5108138;28;20522;-83
2024/01/17 10:34:04;;;;;;;15.60;6.67;;;2.50;99.90;;;;;;5105843;28;20457;-82
2024/01/17 10:36:31;;;;;;;9.27;5.67;;;2.60;99.90;;;;;;5097130;28;20478;-83
2024/01/17 10:39:03;;;;;;;14.63;6.40;;;2.60;99.90;;;;;;5109088;28;20457;-80
2024/01/17 10:41:31;;;;;;;10.13;5.23;;;2.60;99.90;;;;;;5107049;28;20476;-80
2024/01/17 10:44:01;;;;;;;11.10;5.57;;;2.70;99.90;;;;;;5111505;28;20489;-82
2024/01/17 10:46:30;;;;;;;10.40;4.90;;;2.80;99.90;;;;;;5100237;28;20446;-80
2024/01/17 10:48:58;;;;;;;10.20;6.03;;;2.80;99.90;;;;;;5110901;28;20454;-80
2024/01/17 10:51:25;;;;;;;10.47;6.77;;;2.70;99.90;;;;;;5103500;28;20421;-80
2024/01/17 10:53:56;;;;;;;25.50;15.30;;;2.60;99.90;;;;;;5107265;28;20474;-81
2024/01/17 10:56:25;;;;;;;12.77;7.20;;;2.70;99.90;;;;;;5090305;28;20494;-80
2024/01/17 10:58:53;;;;;;;9.83;6.50;;;2.60;99.90;;;;;;5100649;28;20513;-81
2024/01/17 11:01:25;;;;;;;13.97;5.63;;;2.70;99.90;;;;;;5100009;28;20851;-80
2024/01/17 11:03:57;;;;;;;7.37;5.77;;;2.80;99.90;;;;;;5098752;28;20884;-80
2024/01/17 11:06:25;;;;;;;9.10;5.97;;;2.90;99.90;;;;;;5091809;28;20466;-80
2024/01/17 11:08:53;;;;;;;7.07;4.87;;;3.00;99.90;;;;;;5096558;28;20465;-81
2024/01/17 11:11:20;;;;;;;9.10;6.13;;;2.90;99.90;;;;;;5098533;28;21038;-80
2024/01/17 11:13:50;;;;;;;12.13;5.57;;;2.40;99.90;;;;;;5096675;28;20487;-79
2024/01/17 11:16:18;;;;;;;10.50;6.50;;;2.60;99.90;;;;;;5099416;28;20470;-81
2024/01/17 11:18:46;;;;;;;12.20;6.07;;;2.80;99.90;;;;;;5097117;28;20424;-80
2024/01/17 11:21:15;;;;;;;12.40;6.27;;;2.80;99.90;;;;;;5089625;28;20481;-81
2024/01/17 11:23:50;;;;;;;9.20;6.20;;;2.90;99.90;;;;;;5086076;28;20500;-81
2024/01/17 11:26:28;;;;;;;6.77;5.27;;;3.10;99.90;;;;;;5088278;28;20552;-81
2024/01/17 11:29:03;;;;;;;7.33;5.20;;;3.10;99.90;;;;;;5092632;28;20508;-80
2024/01/17 11:31:42;;;;;;;9.70;5.17;;;3.10;99.90;;;;;;5093727;28;20937;-79
2024/01/17 11:34:09;;;;;;;11.07;6.07;;;3.00;99.90;;;;;;5088871;28;20537;-80
2024/01/17 11:36:45;;;;;;;9.10;5.37;;;3.00;99.90;;;;;;5088889;28;20469;-80
2024/01/17 11:39:14;;;;;;;8.17;6.10;;;3.10;99.90;;;;;;5087032;28;21122;-80
2024/01/17 11:41:42;;;;;;;10.90;7.03;;;3.10;99.90;;;;;;5085460;28;20577;-79
2024/01/17 11:44:11;;;;;;;10.60;5.90;;;3.10;99.90;;;;;;5090250;28;20450;-80
2024/01/17 11:46:38;;;;;;;7.97;5.77;;;3.20;99.90;;;;;;5092085;28;20547;-82
2024/01/17 11:49:06;;;;;;;9.57;6.03;;;3.00;99.90;;;;;;5082364;28;20451;-79
2024/01/17 11:51:34;;;;;;;10.23;6.00;;;3.00;99.90;;;;;;5090084;28;20444;-81
2024/01/17 11:54:04;;;;;;;8.93;6.23;;;3.00;99.90;;;;;;5083221;28;20550;-81
2024/01/17 11:56:31;;;;;;;30.07;17.73;;;2.90;99.90;;;;;;5082712;28;20880;-82
2024/01/17 11:59:05;;;;;;;12.53;7.70;;;3.00;99.90;;;;;;5084346;28;20485;-79
2024/01/17 12:01:42;;;;;;;10.73;6.93;;;3.00;99.90;;;;;;5098629;28;20461;-81
2024/01/17 12:04:14;;;;;;;10.00;7.30;;;3.00;99.90;;;;;;5085925;28;21002;-80
2024/01/17 12:06:42;;;;;;;11.00;8.43;;;2.90;99.90;;;;;;5093130;28;20458;-80
2024/01/17 12:09:18;;;;;;;13.50;7.70;;;2.70;99.90;;;;;;5084829;28;20508;-80
2024/01/17 12:11:47;;;;;;;9.97;6.10;;;2.80;99.90;;;;;;5089890;28;20499;-81
2024/01/17 12:14:14;;;;;;;13.03;5.63;;;2.80;99.90;;;;;;5094144;28;20481;-80
2024/01/17 12:16:41;;;;;;;10.37;6.07;;;2.80;99.90;;;;;;5091404;28;20903;-80
2024/01/17 12:19:10;;;;;;;12.53;7.27;;;2.90;99.90;;;;;;5085598;28;20469;-81
2024/01/17 12:21:37;;;;;;;9.80;6.30;;;2.90;99.90;;;;;;5094359;28;20474;-80
2024/01/17 12:24:04;;;;;;;12.60;6.90;;;2.70;99.90;;;;;;5088302;28;20444;-80
2024/01/17 12:26:34;;;;;;;13.80;6.03;;;2.70;99.90;;;;;;5091711;28;20987;-80
2024/01/17 12:29:08;;;;;;;9.90;6.67;;;2.80;99.90;;;;;;5092358;28;20454;-79
2024/01/17 12:31:35;;;;;;;9.73;6.57;;;2.80;99.90;;;;;;5089494;28;20438;-79
2024/01/17 12:34:02;;;;;;;8.53;5.80;;;2.70;99.90;;;;;;5086273;28;20538;-80
2024/01/17 12:36:30;;;;;;;15.53;6.90;;;2.60;99.90;;;;;;5090979;28;20475;-80
2024/01/17 12:38:57;;;;;;;9.97;7.10;;;2.70;99.90;;;;;;5085543;28;20450;-80
2024/01/17 12:41:24;;;;;;;9.73;6.17;;;2.70;99.90;;;;;;5088638;28;20485;-81
2024/01/17 12:43:52;;;;;;;11.53;7.07;;;2.70;99.90;;;;;;5085117;28;20459;-82
2024/01/17 12:46:20;;;;;;;9.97;6.00;;;2.70;99.90;;;;;;5090600;28;20492;-81
2024/01/17 12:48:56;;;;;;;9.67;6.33;;;2.80;99.90;;;;;;5083445;28;20497;-79